sensor_id;sensor_type;location;lat;lon;timestamp;P1;durP1;ratioP1;P2;durP2;ratioP2
16270;SDS011;8243;49.048;8.396;2023-09-08T00:01:03;7.90;;;5.70;;
16270;SDS011;8243;49.048;8.396;2023-09-08T00:03:29;6.47;;;5.87;;
16270;SDS011;8243;49.048;8.396;2023-09-08T00:05:55;6.43;;;5.90;;
16270;SDS011;8243;49.048;8.396;2023-09-08T00:08:21;8.43;;;5.67;;
16270;SDS011;8243;49.048;8.396;2023-09-08T00:10:47;6.80;;;5.60;;
16270;SDS011;8243;49.048;8.396;2023-09-08T00:13:13;8.50;;;5.80;;
16270;SDS011;8243;49.048;8.396;2023-09-08T00:15:38;6.13;;;5.63;;
16270;SDS011;8243;49.048;8.396;2023-09-08T00:18:04;9.80;;;5.57;;
16270;SDS011;8243;49.048;8.396;2023-09-08T00:20:29;8.23;;;5.80;;
16270;SDS011;8243;49.048;8.396;2023-09-08T00:22:55;6.40;;;5.90;;
16270;SDS011;8243;49.048;8.396;2023-09-08T00:25:21;6.80;;;6.20;;
16270;SDS011;8243;49.048;8.396;2023-09-08T00:27:47;8.57;;;5.63;;
16270;SDS011;8243;49.048;8.396;2023-09-08T00:30:13;9.47;;;6.47;;
16270;SDS011;8243;49.048;8.396;2023-09-08T00:32:39;8.03;;;6.10;;
16270;SDS011;8243;49.048;8.396;2023-09-08T00:35:10;8.83;;;6.57;;
16270;SDS011;8243;49.048;8.396;2023-09-08T00:37:37;6.63;;;6.00;;
16270;SDS011;8243;49.048;8.396;2023-09-08T00:40:04;7.20;;;6.47;;
16270;SDS011;8243;49.048;8.396;2023-09-08T00:42:32;8.73;;;6.30;;
16270;SDS011;8243;49.048;8.396;2023-09-08T00:44:57;6.67;;;6.03;;
16270;SDS011;8243;49.048;8.396;2023-09-08T00:47:23;7.93;;;6.50;;
16270;SDS011;8243;49.048;8.396;2023-09-08T00:49:49;8.60;;;6.53;;
16270;SDS011;8243;49.048;8.396;2023-09-08T00:52:16;8.10;;;6.47;;
16270;SDS011;8243;49.048;8.396;2023-09-08T00:54:42;8.30;;;6.23;;
16270;SDS011;8243;49.048;8.396;2023-09-08T00:57:08;9.63;;;6.37;;
16270;SDS011;8243;49.048;8.396;2023-09-08T00:59:35;7.80;;;6.83;;
16270;SDS011;8243;49.048;8.396;2023-09-08T01:02:01;7.07;;;6.37;;
16270;SDS011;8243;49.048;8.396;2023-09-08T01:04:27;9.63;;;6.60;;
16270;SDS011;8243;49.048;8.396;2023-09-08T01:06:54;7.17;;;6.50;;
16270;SDS011;8243;49.048;8.396;2023-09-08T01:09:21;7.40;;;6.60;;
16270;SDS011;8243;49.048;8.396;2023-09-08T01:11:48;8.83;;;6.70;;
16270;SDS011;8243;49.048;8.396;2023-09-08T01:14:17;8.60;;;6.83;;
16270;SDS011;8243;49.048;8.396;2023-09-08T01:16:44;7.30;;;6.60;;
16270;SDS011;8243;49.048;8.396;2023-09-08T01:19:10;9.40;;;6.80;;
16270;SDS011;8243;49.048;8.396;2023-09-08T01:24:44;8.47;;;7.00;;
16270;SDS011;8243;49.048;8.396;2023-09-08T01:27:22;7.87;;;7.13;;
16270;SDS011;8243;49.048;8.396;2023-09-08T01:29:50;7.20;;;6.50;;
16270;SDS011;8243;49.048;8.396;2023-09-08T01:32:18;7.27;;;6.57;;
16270;SDS011;8243;49.048;8.396;2023-09-08T01:34:46;7.47;;;6.77;;
16270;SDS011;8243;49.048;8.396;2023-09-08T01:37:11;7.80;;;6.97;;
16270;SDS011;8243;49.048;8.396;2023-09-08T01:39:37;8.17;;;6.80;;
16270;SDS011;8243;49.048;8.396;2023-09-08T01:42:03;7.27;;;6.43;;
16270;SDS011;8243;49.048;8.396;2023-09-08T01:44:28;7.90;;;6.40;;
16270;SDS011;8243;49.048;8.396;2023-09-08T01:46:54;7.83;;;7.03;;
16270;SDS011;8243;49.048;8.396;2023-09-08T01:49:22;8.30;;;6.73;;
16270;SDS011;8243;49.048;8.396;2023-09-08T01:51:49;8.93;;;6.70;;
16270;SDS011;8243;49.048;8.396;2023-09-08T01:54:15;7.70;;;7.00;;
16270;SDS011;8243;49.048;8.396;2023-09-08T01:56:41;7.87;;;7.10;;
16270;SDS011;8243;49.048;8.396;2023-09-08T01:59:07;7.90;;;7.20;;
16270;SDS011;8243;49.048;8.396;2023-09-08T02:01:33;7.53;;;6.83;;
16270;SDS011;8243;49.048;8.396;2023-09-08T02:03:58;8.17;;;7.33;;
16270;SDS011;8243;49.048;8.396;2023-09-08T02:06:25;7.90;;;7.10;;
16270;SDS011;8243;49.048;8.396;2023-09-08T02:08:50;8.70;;;7.30;;
16270;SDS011;8243;49.048;8.396;2023-09-08T02:11:16;13.93;;;7.80;;
16270;SDS011;8243;49.048;8.396;2023-09-08T02:13:41;6.83;;;6.23;;
16270;SDS011;8243;49.048;8.396;2023-09-08T02:16:12;7.27;;;6.67;;
16270;SDS011;8243;49.048;8.396;2023-09-08T02:18:44;8.17;;;7.27;;
16270;SDS011;8243;49.048;8.396;2023-09-08T02:21:10;7.70;;;6.53;;
16270;SDS011;8243;49.048;8.396;2023-09-08T02:23:37;8.90;;;6.93;;
16270;SDS011;8243;49.048;8.396;2023-09-08T02:26:03;8.43;;;7.63;;
16270;SDS011;8243;49.048;8.396;2023-09-08T02:28:29;8.03;;;7.23;;
16270;SDS011;8243;49.048;8.396;2023-09-08T02:30:55;10.57;;;7.87;;
16270;SDS011;8243;49.048;8.396;2023-09-08T02:33:20;7.70;;;6.90;;
16270;SDS011;8243;49.048;8.396;2023-09-08T02:35:46;8.17;;;7.30;;
16270;SDS011;8243;49.048;8.396;2023-09-08T02:38:12;8.17;;;7.37;;
16270;SDS011;8243;49.048;8.396;2023-09-08T02:40:37;8.60;;;7.33;;
16270;SDS011;8243;49.048;8.396;2023-09-08T02:43:03;8.20;;;7.23;;
16270;SDS011;8243;49.048;8.396;2023-09-08T02:45:29;8.50;;;7.70;;
16270;SDS011;8243;49.048;8.396;2023-09-08T02:47:55;8.23;;;7.43;;
16270;SDS011;8243;49.048;8.396;2023-09-08T02:50:21;8.83;;;7.93;;
16270;SDS011;8243;49.048;8.396;2023-09-08T02:52:47;8.13;;;7.40;;
16270;SDS011;8243;49.048;8.396;2023-09-08T02:55:14;9.40;;;8.47;;
16270;SDS011;8243;49.048;8.396;2023-09-08T02:57:40;8.87;;;7.97;;
16270;SDS011;8243;49.048;8.396;2023-09-08T03:00:06;8.50;;;7.70;;
16270;SDS011;8243;49.048;8.396;2023-09-08T03:02:33;8.53;;;7.73;;
16270;SDS011;8243;49.048;8.396;2023-09-08T03:04:58;8.23;;;7.43;;
16270;SDS011;8243;49.048;8.396;2023-09-08T03:07:25;8.67;;;7.80;;
16270;SDS011;8243;49.048;8.396;2023-09-08T03:09:52;8.13;;;7.30;;
16270;SDS011;8243;49.048;8.396;2023-09-08T03:12:17;8.37;;;7.57;;
16270;SDS011;8243;49.048;8.396;2023-09-08T03:14:43;9.70;;;7.70;;
16270;SDS011;8243;49.048;8.396;2023-09-08T03:17:09;8.30;;;7.50;;
16270;SDS011;8243;49.048;8.396;2023-09-08T03:19:36;8.33;;;7.53;;
16270;SDS011;8243;49.048;8.396;2023-09-08T03:22:01;8.50;;;7.60;;
16270;SDS011;8243;49.048;8.396;2023-09-08T03:24:28;8.70;;;7.80;;
16270;SDS011;8243;49.048;8.396;2023-09-08T03:26:53;8.20;;;7.30;;
16270;SDS011;8243;49.048;8.396;2023-09-08T03:29:19;8.57;;;7.77;;
16270;SDS011;8243;49.048;8.396;2023-09-08T03:31:44;8.30;;;7.50;;
16270;SDS011;8243;49.048;8.396;2023-09-08T03:34:11;7.90;;;7.20;;
16270;SDS011;8243;49.048;8.396;2023-09-08T03:36:37;8.43;;;7.60;;
16270;SDS011;8243;49.048;8.396;2023-09-08T03:39:02;8.10;;;7.30;;
16270;SDS011;8243;49.048;8.396;2023-09-08T03:41:28;8.23;;;7.43;;
16270;SDS011;8243;49.048;8.396;2023-09-08T03:43:54;8.20;;;7.47;;
16270;SDS011;8243;49.048;8.396;2023-09-08T03:46:20;7.70;;;6.90;;
16270;SDS011;8243;49.048;8.396;2023-09-08T03:48:46;9.57;;;7.83;;
16270;SDS011;8243;49.048;8.396;2023-09-08T03:51:11;8.83;;;7.97;;
16270;SDS011;8243;49.048;8.396;2023-09-08T03:53:37;8.97;;;8.17;;
16270;SDS011;8243;49.048;8.396;2023-09-08T03:56:03;8.00;;;7.30;;
16270;SDS011;8243;49.048;8.396;2023-09-08T03:58:28;8.37;;;7.57;;
16270;SDS011;8243;49.048;8.396;2023-09-08T04:00:54;8.97;;;8.17;;
16270;SDS011;8243;49.048;8.396;2023-09-08T04:03:20;8.10;;;7.40;;
16270;SDS011;8243;49.048;8.396;2023-09-08T04:05:46;8.63;;;7.83;;
16270;SDS011;8243;49.048;8.396;2023-09-08T04:08:11;8.33;;;7.53;;
16270;SDS011;8243;49.048;8.396;2023-09-08T04:10:37;7.70;;;7.00;;
16270;SDS011;8243;49.048;8.396;2023-09-08T04:13:03;9.17;;;8.37;;
16270;SDS011;8243;49.048;8.396;2023-09-08T04:15:29;8.87;;;7.97;;
16270;SDS011;8243;49.048;8.396;2023-09-08T04:17:55;9.77;;;8.57;;
16270;SDS011;8243;49.048;8.396;2023-09-08T04:20:22;8.53;;;7.50;;
16270;SDS011;8243;49.048;8.396;2023-09-08T04:22:47;9.47;;;7.40;;
16270;SDS011;8243;49.048;8.396;2023-09-08T04:25:13;9.10;;;8.20;;
16270;SDS011;8243;49.048;8.396;2023-09-08T04:27:39;10.70;;;8.20;;
16270;SDS011;8243;49.048;8.396;2023-09-08T04:30:06;11.00;;;8.37;;
16270;SDS011;8243;49.048;8.396;2023-09-08T04:32:32;9.20;;;8.30;;
16270;SDS011;8243;49.048;8.396;2023-09-08T04:34:58;10.10;;;7.93;;
16270;SDS011;8243;49.048;8.396;2023-09-08T04:37:24;8.07;;;7.17;;
16270;SDS011;8243;49.048;8.396;2023-09-08T04:39:50;9.00;;;7.87;;
16270;SDS011;8243;49.048;8.396;2023-09-08T04:42:15;8.77;;;7.70;;
16270;SDS011;8243;49.048;8.396;2023-09-08T04:44:42;10.70;;;8.10;;
16270;SDS011;8243;49.048;8.396;2023-09-08T04:47:07;10.67;;;8.47;;
16270;SDS011;8243;49.048;8.396;2023-09-08T04:49:33;8.20;;;7.40;;
16270;SDS011;8243;49.048;8.396;2023-09-08T04:51:59;7.83;;;7.13;;
16270;SDS011;8243;49.048;8.396;2023-09-08T04:54:24;8.73;;;7.83;;
16270;SDS011;8243;49.048;8.396;2023-09-08T04:56:52;8.37;;;7.57;;
16270;SDS011;8243;49.048;8.396;2023-09-08T04:59:19;7.67;;;6.97;;
16270;SDS011;8243;49.048;8.396;2023-09-08T05:01:44;8.30;;;7.50;;
16270;SDS011;8243;49.048;8.396;2023-09-08T05:04:11;10.10;;;7.47;;
16270;SDS011;8243;49.048;8.396;2023-09-08T05:06:36;8.03;;;7.20;;
16270;SDS011;8243;49.048;8.396;2023-09-08T05:09:02;8.00;;;7.23;;
16270;SDS011;8243;49.048;8.396;2023-09-08T05:11:28;8.50;;;7.70;;
16270;SDS011;8243;49.048;8.396;2023-09-08T05:13:53;9.27;;;7.50;;
16270;SDS011;8243;49.048;8.396;2023-09-08T05:16:19;8.50;;;7.67;;
16270;SDS011;8243;49.048;8.396;2023-09-08T05:19:00;10.20;;;7.53;;
16270;SDS011;8243;49.048;8.396;2023-09-08T05:21:26;8.73;;;7.90;;
16270;SDS011;8243;49.048;8.396;2023-09-08T05:23:52;8.47;;;7.67;;
16270;SDS011;8243;49.048;8.396;2023-09-08T05:26:17;11.07;;;8.90;;
16270;SDS011;8243;49.048;8.396;2023-09-08T05:28:43;8.57;;;7.33;;
16270;SDS011;8243;49.048;8.396;2023-09-08T05:31:09;10.50;;;7.63;;
16270;SDS011;8243;49.048;8.396;2023-09-08T05:33:34;10.77;;;7.80;;
16270;SDS011;8243;49.048;8.396;2023-09-08T05:36:00;9.73;;;8.00;;
16270;SDS011;8243;49.048;8.396;2023-09-08T05:38:25;7.80;;;7.10;;
16270;SDS011;8243;49.048;8.396;2023-09-08T05:40:53;9.17;;;8.27;;
16270;SDS011;8243;49.048;8.396;2023-09-08T05:43:18;9.10;;;7.63;;
16270;SDS011;8243;49.048;8.396;2023-09-08T05:45:44;8.00;;;7.20;;
16270;SDS011;8243;49.048;8.396;2023-09-08T05:48:09;9.00;;;7.60;;
16270;SDS011;8243;49.048;8.396;2023-09-08T05:50:36;7.60;;;6.80;;
16270;SDS011;8243;49.048;8.396;2023-09-08T05:53:02;7.60;;;6.73;;
16270;SDS011;8243;49.048;8.396;2023-09-08T05:55:27;7.47;;;6.87;;
16270;SDS011;8243;49.048;8.396;2023-09-08T05:57:53;7.70;;;6.00;;
16270;SDS011;8243;49.048;8.396;2023-09-08T06:00:19;6.77;;;6.10;;
16270;SDS011;8243;49.048;8.396;2023-09-08T06:02:45;7.13;;;5.63;;
16270;SDS011;8243;49.048;8.396;2023-09-08T06:05:11;7.17;;;5.83;;
16270;SDS011;8243;49.048;8.396;2023-09-08T06:07:37;5.70;;;5.20;;
16270;SDS011;8243;49.048;8.396;2023-09-08T06:10:03;6.20;;;5.00;;
16270;SDS011;8243;49.048;8.396;2023-09-08T06:12:28;6.27;;;5.50;;
16270;SDS011;8243;49.048;8.396;2023-09-08T06:14:54;5.73;;;5.13;;
16270;SDS011;8243;49.048;8.396;2023-09-08T06:17:19;6.07;;;5.47;;
16270;SDS011;8243;49.048;8.396;2023-09-08T06:19:45;6.80;;;5.43;;
16270;SDS011;8243;49.048;8.396;2023-09-08T06:22:11;6.83;;;5.60;;
16270;SDS011;8243;49.048;8.396;2023-09-08T06:24:38;6.27;;;5.67;;
16270;SDS011;8243;49.048;8.396;2023-09-08T06:27:05;6.67;;;6.13;;
16270;SDS011;8243;49.048;8.396;2023-09-08T06:29:31;6.30;;;5.70;;
16270;SDS011;8243;49.048;8.396;2023-09-08T06:31:58;6.83;;;6.10;;
16270;SDS011;8243;49.048;8.396;2023-09-08T06:34:24;5.70;;;5.20;;
16270;SDS011;8243;49.048;8.396;2023-09-08T06:36:50;8.67;;;5.50;;
16270;SDS011;8243;49.048;8.396;2023-09-08T06:39:15;7.17;;;5.40;;
16270;SDS011;8243;49.048;8.396;2023-09-08T06:41:42;5.43;;;4.93;;
16270;SDS011;8243;49.048;8.396;2023-09-08T06:44:08;6.07;;;5.47;;
16270;SDS011;8243;49.048;8.396;2023-09-08T06:46:34;7.13;;;5.20;;
16270;SDS011;8243;49.048;8.396;2023-09-08T06:48:59;6.77;;;5.43;;
16270;SDS011;8243;49.048;8.396;2023-09-08T06:51:25;8.70;;;5.53;;
16270;SDS011;8243;49.048;8.396;2023-09-08T06:53:54;5.40;;;4.90;;
16270;SDS011;8243;49.048;8.396;2023-09-08T06:56:25;5.70;;;5.10;;
16270;SDS011;8243;49.048;8.396;2023-09-08T06:58:50;7.30;;;5.20;;
16270;SDS011;8243;49.048;8.396;2023-09-08T07:01:16;6.00;;;5.50;;
16270;SDS011;8243;49.048;8.396;2023-09-08T07:03:43;7.63;;;5.17;;
16270;SDS011;8243;49.048;8.396;2023-09-08T07:06:10;5.30;;;4.80;;
16270;SDS011;8243;49.048;8.396;2023-09-08T07:08:36;7.47;;;5.73;;
16270;SDS011;8243;49.048;8.396;2023-09-08T07:11:03;5.70;;;5.20;;
16270;SDS011;8243;49.048;8.396;2023-09-08T07:13:28;5.70;;;5.20;;
16270;SDS011;8243;49.048;8.396;2023-09-08T07:15:54;6.10;;;5.50;;
16270;SDS011;8243;49.048;8.396;2023-09-08T07:18:20;6.00;;;5.27;;
16270;SDS011;8243;49.048;8.396;2023-09-08T07:20:46;6.07;;;5.07;;
16270;SDS011;8243;49.048;8.396;2023-09-08T07:23:13;5.60;;;4.93;;
16270;SDS011;8243;49.048;8.396;2023-09-08T07:25:39;6.57;;;4.53;;
16270;SDS011;8243;49.048;8.396;2023-09-08T07:28:05;5.47;;;4.97;;
16270;SDS011;8243;49.048;8.396;2023-09-08T07:30:31;6.60;;;5.20;;
16270;SDS011;8243;49.048;8.396;2023-09-08T07:32:57;5.67;;;5.10;;
16270;SDS011;8243;49.048;8.396;2023-09-08T07:35:23;7.20;;;5.00;;
16270;SDS011;8243;49.048;8.396;2023-09-08T07:37:49;6.30;;;4.87;;
16270;SDS011;8243;49.048;8.396;2023-09-08T07:40:15;6.00;;;5.07;;
16270;SDS011;8243;49.048;8.396;2023-09-08T07:42:42;9.83;;;5.70;;
16270;SDS011;8243;49.048;8.396;2023-09-08T07:45:08;5.70;;;5.10;;
16270;SDS011;8243;49.048;8.396;2023-09-08T07:47:34;5.77;;;5.07;;
16270;SDS011;8243;49.048;8.396;2023-09-08T07:50:16;5.50;;;4.77;;
16270;SDS011;8243;49.048;8.396;2023-09-08T07:52:50;6.50;;;4.93;;
16270;SDS011;8243;49.048;8.396;2023-09-08T07:55:16;5.80;;;5.20;;
16270;SDS011;8243;49.048;8.396;2023-09-08T07:57:43;5.53;;;5.03;;
16270;SDS011;8243;49.048;8.396;2023-09-08T08:00:11;5.10;;;4.60;;
16270;SDS011;8243;49.048;8.396;2023-09-08T08:02:37;5.60;;;5.20;;
16270;SDS011;8243;49.048;8.396;2023-09-08T08:05:07;5.63;;;5.13;;
16270;SDS011;8243;49.048;8.396;2023-09-08T08:07:33;5.13;;;4.73;;
16270;SDS011;8243;49.048;8.396;2023-09-08T08:09:58;8.33;;;5.37;;
16270;SDS011;8243;49.048;8.396;2023-09-08T08:12:24;6.00;;;5.40;;
16270;SDS011;8243;49.048;8.396;2023-09-08T08:14:49;6.03;;;5.50;;
16270;SDS011;8243;49.048;8.396;2023-09-08T08:17:16;6.03;;;5.43;;
16270;SDS011;8243;49.048;8.396;2023-09-08T08:19:43;6.03;;;5.40;;
16270;SDS011;8243;49.048;8.396;2023-09-08T08:22:09;5.43;;;4.83;;
16270;SDS011;8243;49.048;8.396;2023-09-08T08:24:34;8.70;;;5.03;;
16270;SDS011;8243;49.048;8.396;2023-09-08T08:27:00;7.20;;;5.47;;
16270;SDS011;8243;49.048;8.396;2023-09-08T08:29:26;5.93;;;5.30;;
16270;SDS011;8243;49.048;8.396;2023-09-08T08:31:52;7.03;;;6.10;;
16270;SDS011;8243;49.048;8.396;2023-09-08T08:34:18;6.33;;;5.73;;
16270;SDS011;8243;49.048;8.396;2023-09-08T08:36:44;6.70;;;5.57;;
16270;SDS011;8243;49.048;8.396;2023-09-08T08:39:10;10.50;;;5.90;;
16270;SDS011;8243;49.048;8.396;2023-09-08T08:41:36;7.20;;;6.50;;
16270;SDS011;8243;49.048;8.396;2023-09-08T08:44:05;7.17;;;6.50;;
16270;SDS011;8243;49.048;8.396;2023-09-08T08:46:33;8.33;;;6.50;;
16270;SDS011;8243;49.048;8.396;2023-09-08T08:49:01;6.93;;;6.20;;
16270;SDS011;8243;49.048;8.396;2023-09-08T08:51:32;7.33;;;6.10;;
16270;SDS011;8243;49.048;8.396;2023-09-08T08:53:59;6.83;;;6.10;;
16270;SDS011;8243;49.048;8.396;2023-09-08T08:56:30;6.73;;;6.03;;
16270;SDS011;8243;49.048;8.396;2023-09-08T08:59:01;7.80;;;6.57;;
16270;SDS011;8243;49.048;8.396;2023-09-08T09:01:27;11.67;;;6.13;;
16270;SDS011;8243;49.048;8.396;2023-09-08T09:03:54;6.50;;;5.87;;
16270;SDS011;8243;49.048;8.396;2023-09-08T09:06:22;6.90;;;6.20;;
16270;SDS011;8243;49.048;8.396;2023-09-08T09:08:47;6.63;;;6.07;;
16270;SDS011;8243;49.048;8.396;2023-09-08T09:11:13;8.27;;;6.07;;
16270;SDS011;8243;49.048;8.396;2023-09-08T09:13:39;7.13;;;5.80;;
16270;SDS011;8243;49.048;8.396;2023-09-08T09:16:05;6.67;;;5.97;;
16270;SDS011;8243;49.048;8.396;2023-09-08T09:18:37;7.60;;;6.23;;
16270;SDS011;8243;49.048;8.396;2023-09-08T09:21:23;9.93;;;6.73;;
16270;SDS011;8243;49.048;8.396;2023-09-08T09:24:05;6.87;;;6.17;;
16270;SDS011;8243;49.048;8.396;2023-09-08T09:26:31;7.43;;;6.70;;
16270;SDS011;8243;49.048;8.396;2023-09-08T09:28:56;9.20;;;6.67;;
16270;SDS011;8243;49.048;8.396;2023-09-08T09:31:24;7.73;;;7.03;;
16270;SDS011;8243;49.048;8.396;2023-09-08T09:34:03;6.93;;;6.23;;
16270;SDS011;8243;49.048;8.396;2023-09-08T09:36:30;7.73;;;6.87;;
16270;SDS011;8243;49.048;8.396;2023-09-08T09:38:59;7.50;;;6.80;;
16270;SDS011;8243;49.048;8.396;2023-09-08T09:41:28;8.07;;;7.07;;
16270;SDS011;8243;49.048;8.396;2023-09-08T09:43:56;7.80;;;7.00;;
16270;SDS011;8243;49.048;8.396;2023-09-08T09:46:22;11.40;;;7.77;;
16270;SDS011;8243;49.048;8.396;2023-09-08T09:48:51;6.83;;;6.23;;
16270;SDS011;8243;49.048;8.396;2023-09-08T09:51:21;9.53;;;6.83;;
16270;SDS011;8243;49.048;8.396;2023-09-08T09:53:51;7.83;;;6.57;;
16270;SDS011;8243;49.048;8.396;2023-09-08T09:56:17;7.40;;;6.70;;
16270;SDS011;8243;49.048;8.396;2023-09-08T09:58:43;9.50;;;7.70;;
16270;SDS011;8243;49.048;8.396;2023-09-08T10:01:10;7.30;;;6.60;;
16270;SDS011;8243;49.048;8.396;2023-09-08T10:03:39;8.70;;;6.80;;
16270;SDS011;8243;49.048;8.396;2023-09-08T10:06:12;8.37;;;7.00;;
16270;SDS011;8243;49.048;8.396;2023-09-08T10:08:39;10.33;;;7.10;;
16270;SDS011;8243;49.048;8.396;2023-09-08T10:11:06;8.53;;;6.57;;
16270;SDS011;8243;49.048;8.396;2023-09-08T10:13:37;10.23;;;6.93;;
16270;SDS011;8243;49.048;8.396;2023-09-08T10:16:08;10.10;;;6.70;;
16270;SDS011;8243;49.048;8.396;2023-09-08T10:18:41;9.43;;;6.77;;
16270;SDS011;8243;49.048;8.396;2023-09-08T10:21:09;7.20;;;6.50;;
16270;SDS011;8243;49.048;8.396;2023-09-08T10:23:44;9.10;;;6.77;;
16270;SDS011;8243;49.048;8.396;2023-09-08T10:26:19;7.90;;;7.10;;
16270;SDS011;8243;49.048;8.396;2023-09-08T10:28:51;8.60;;;7.40;;
16270;SDS011;8243;49.048;8.396;2023-09-08T10:31:22;7.57;;;6.67;;
16270;SDS011;8243;49.048;8.396;2023-09-08T10:33:50;9.63;;;7.30;;
16270;SDS011;8243;49.048;8.396;2023-09-08T10:36:17;8.63;;;6.77;;
16270;SDS011;8243;49.048;8.396;2023-09-08T10:38:44;7.43;;;6.80;;
16270;SDS011;8243;49.048;8.396;2023-09-08T10:46:28;7.70;;;7.10;;
16270;SDS011;8243;49.048;8.396;2023-09-08T10:49:00;8.07;;;7.10;;
16270;SDS011;8243;49.048;8.396;2023-09-08T10:51:32;10.03;;;7.53;;
16270;SDS011;8243;49.048;8.396;2023-09-08T10:54:01;7.40;;;6.70;;
16270;SDS011;8243;49.048;8.396;2023-09-08T10:56:54;6.57;;;6.00;;
16270;SDS011;8243;49.048;8.396;2023-09-08T10:59:19;7.73;;;6.93;;
16270;SDS011;8243;49.048;8.396;2023-09-08T11:01:47;7.63;;;6.27;;
16270;SDS011;8243;49.048;8.396;2023-09-08T11:04:14;7.50;;;6.77;;
16270;SDS011;8243;49.048;8.396;2023-09-08T11:06:43;6.70;;;6.00;;
16270;SDS011;8243;49.048;8.396;2023-09-08T11:09:10;7.57;;;6.87;;
16270;SDS011;8243;49.048;8.396;2023-09-08T11:11:35;7.07;;;6.40;;
16270;SDS011;8243;49.048;8.396;2023-09-08T11:14:02;8.07;;;7.27;;
16270;SDS011;8243;49.048;8.396;2023-09-08T11:16:28;6.30;;;5.70;;
16270;SDS011;8243;49.048;8.396;2023-09-08T11:18:58;6.67;;;6.00;;
16270;SDS011;8243;49.048;8.396;2023-09-08T11:21:26;6.97;;;6.23;;
16270;SDS011;8243;49.048;8.396;2023-09-08T11:23:52;6.73;;;6.03;;
16270;SDS011;8243;49.048;8.396;2023-09-08T11:26:18;9.00;;;6.37;;
16270;SDS011;8243;49.048;8.396;2023-09-08T11:28:44;8.77;;;6.47;;
16270;SDS011;8243;49.048;8.396;2023-09-08T11:31:12;8.47;;;6.07;;
16270;SDS011;8243;49.048;8.396;2023-09-08T11:33:38;7.13;;;6.53;;
16270;SDS011;8243;49.048;8.396;2023-09-08T11:36:11;7.57;;;5.40;;
16270;SDS011;8243;49.048;8.396;2023-09-08T11:38:44;6.97;;;6.20;;
16270;SDS011;8243;49.048;8.396;2023-09-08T11:41:10;10.90;;;6.20;;
16270;SDS011;8243;49.048;8.396;2023-09-08T11:43:36;7.30;;;6.00;;
16270;SDS011;8243;49.048;8.396;2023-09-08T11:46:02;7.23;;;5.97;;
16270;SDS011;8243;49.048;8.396;2023-09-08T11:48:28;8.97;;;5.97;;
16270;SDS011;8243;49.048;8.396;2023-09-08T11:50:54;7.37;;;5.83;;
16270;SDS011;8243;49.048;8.396;2023-09-08T11:53:23;5.80;;;5.20;;
16270;SDS011;8243;49.048;8.396;2023-09-08T11:55:50;7.90;;;5.33;;
16270;SDS011;8243;49.048;8.396;2023-09-08T11:58:17;5.97;;;5.47;;
16270;SDS011;8243;49.048;8.396;2023-09-08T12:00:44;10.63;;;5.90;;
16270;SDS011;8243;49.048;8.396;2023-09-08T12:03:14;5.73;;;5.23;;
16270;SDS011;8243;49.048;8.396;2023-09-08T12:05:41;7.23;;;5.90;;
16270;SDS011;8243;49.048;8.396;2023-09-08T12:08:09;9.43;;;6.30;;
16270;SDS011;8243;49.048;8.396;2023-09-08T12:10:38;6.57;;;5.97;;
16270;SDS011;8243;49.048;8.396;2023-09-08T12:13:05;5.73;;;5.33;;
16270;SDS011;8243;49.048;8.396;2023-09-08T12:18:04;7.77;;;5.57;;
16270;SDS011;8243;49.048;8.396;2023-09-08T12:20:37;5.80;;;5.23;;
16270;SDS011;8243;49.048;8.396;2023-09-08T12:23:04;5.83;;;5.30;;
16270;SDS011;8243;49.048;8.396;2023-09-08T12:25:32;7.20;;;5.70;;
16270;SDS011;8243;49.048;8.396;2023-09-08T12:27:59;7.57;;;5.73;;
16270;SDS011;8243;49.048;8.396;2023-09-08T12:30:26;8.23;;;5.40;;
16270;SDS011;8243;49.048;8.396;2023-09-08T12:33:00;6.23;;;5.73;;
16270;SDS011;8243;49.048;8.396;2023-09-08T12:35:26;6.30;;;5.70;;
16270;SDS011;8243;49.048;8.396;2023-09-08T12:37:53;7.77;;;5.83;;
16270;SDS011;8243;49.048;8.396;2023-09-08T12:40:23;5.20;;;4.80;;
16270;SDS011;8243;49.048;8.396;2023-09-08T12:42:49;6.10;;;5.50;;
16270;SDS011;8243;49.048;8.396;2023-09-08T12:45:15;6.27;;;5.20;;
16270;SDS011;8243;49.048;8.396;2023-09-08T12:47:41;6.30;;;5.70;;
16270;SDS011;8243;49.048;8.396;2023-09-08T12:50:08;6.17;;;5.10;;
16270;SDS011;8243;49.048;8.396;2023-09-08T12:52:34;5.80;;;5.27;;
16270;SDS011;8243;49.048;8.396;2023-09-08T12:55:00;5.40;;;5.00;;
16270;SDS011;8243;49.048;8.396;2023-09-08T12:57:26;5.60;;;5.10;;
16270;SDS011;8243;49.048;8.396;2023-09-08T12:59:51;5.60;;;5.10;;
16270;SDS011;8243;49.048;8.396;2023-09-08T13:02:17;5.80;;;5.30;;
16270;SDS011;8243;49.048;8.396;2023-09-08T13:04:43;5.97;;;5.47;;
16270;SDS011;8243;49.048;8.396;2023-09-08T13:07:14;5.47;;;4.87;;
16270;SDS011;8243;49.048;8.396;2023-09-08T13:09:40;6.40;;;5.40;;
16270;SDS011;8243;49.048;8.396;2023-09-08T13:12:06;6.37;;;5.77;;
16270;SDS011;8243;49.048;8.396;2023-09-08T13:14:31;6.43;;;5.67;;
16270;SDS011;8243;49.048;8.396;2023-09-08T13:16:57;6.77;;;5.33;;
16270;SDS011;8243;49.048;8.396;2023-09-08T13:19:23;5.97;;;5.40;;
16270;SDS011;8243;49.048;8.396;2023-09-08T13:21:49;5.93;;;5.33;;
16270;SDS011;8243;49.048;8.396;2023-09-08T13:24:16;7.90;;;5.30;;
16270;SDS011;8243;49.048;8.396;2023-09-08T13:26:48;5.67;;;5.17;;
16270;SDS011;8243;49.048;8.396;2023-09-08T13:29:13;5.93;;;5.43;;
16270;SDS011;8243;49.048;8.396;2023-09-08T13:31:39;5.50;;;5.00;;
16270;SDS011;8243;49.048;8.396;2023-09-08T13:34:05;9.70;;;6.47;;
16270;SDS011;8243;49.048;8.396;2023-09-08T13:36:31;7.43;;;6.07;;
16270;SDS011;8243;49.048;8.396;2023-09-08T13:38:56;6.03;;;5.40;;
16270;SDS011;8243;49.048;8.396;2023-09-08T13:41:23;8.23;;;5.87;;
16270;SDS011;8243;49.048;8.396;2023-09-08T13:43:49;6.73;;;5.57;;
16270;SDS011;8243;49.048;8.396;2023-09-08T13:46:15;7.60;;;6.00;;
16270;SDS011;8243;49.048;8.396;2023-09-08T13:48:41;9.20;;;5.70;;
16270;SDS011;8243;49.048;8.396;2023-09-08T13:51:08;6.10;;;5.53;;
16270;SDS011;8243;49.048;8.396;2023-09-08T13:56:19;7.80;;;5.20;;
16270;SDS011;8243;49.048;8.396;2023-09-08T13:58:45;5.77;;;5.00;;
16270;SDS011;8243;49.048;8.396;2023-09-08T14:01:11;8.23;;;5.37;;
16270;SDS011;8243;49.048;8.396;2023-09-08T14:03:37;6.20;;;5.40;;
16270;SDS011;8243;49.048;8.396;2023-09-08T14:06:03;9.63;;;5.30;;
16270;SDS011;8243;49.048;8.396;2023-09-08T14:08:29;5.43;;;4.60;;
16270;SDS011;8243;49.048;8.396;2023-09-08T14:10:54;6.17;;;4.70;;
16270;SDS011;8243;49.048;8.396;2023-09-08T14:13:21;11.70;;;5.20;;
16270;SDS011;8243;49.048;8.396;2023-09-08T14:15:47;4.90;;;4.50;;
16270;SDS011;8243;49.048;8.396;2023-09-08T14:18:12;7.33;;;5.17;;
16270;SDS011;8243;49.048;8.396;2023-09-08T14:20:39;4.93;;;4.43;;
16270;SDS011;8243;49.048;8.396;2023-09-08T14:23:06;7.83;;;4.83;;
16270;SDS011;8243;49.048;8.396;2023-09-08T14:25:35;5.67;;;4.83;;
16270;SDS011;8243;49.048;8.396;2023-09-08T14:28:00;5.57;;;4.93;;
16270;SDS011;8243;49.048;8.396;2023-09-08T14:30:29;5.83;;;5.03;;
16270;SDS011;8243;49.048;8.396;2023-09-08T14:32:55;6.47;;;4.63;;
16270;SDS011;8243;49.048;8.396;2023-09-08T14:35:21;7.40;;;5.03;;
16270;SDS011;8243;49.048;8.396;2023-09-08T14:37:47;6.37;;;5.70;;
16270;SDS011;8243;49.048;8.396;2023-09-08T14:40:15;5.03;;;4.53;;
16270;SDS011;8243;49.048;8.396;2023-09-08T14:42:41;5.33;;;4.93;;
16270;SDS011;8243;49.048;8.396;2023-09-08T14:45:07;5.10;;;4.70;;
16270;SDS011;8243;49.048;8.396;2023-09-08T14:47:34;7.47;;;5.20;;
16270;SDS011;8243;49.048;8.396;2023-09-08T14:50:00;7.10;;;4.50;;
16270;SDS011;8243;49.048;8.396;2023-09-08T14:52:25;5.53;;;4.73;;
16270;SDS011;8243;49.048;8.396;2023-09-08T14:54:51;5.47;;;4.77;;
16270;SDS011;8243;49.048;8.396;2023-09-08T14:57:17;6.13;;;4.90;;
16270;SDS011;8243;49.048;8.396;2023-09-08T14:59:44;5.50;;;4.67;;
16270;SDS011;8243;49.048;8.396;2023-09-08T15:02:10;7.27;;;4.57;;
16270;SDS011;8243;49.048;8.396;2023-09-08T15:04:36;5.50;;;5.00;;
16270;SDS011;8243;49.048;8.396;2023-09-08T15:07:02;6.13;;;5.27;;
16270;SDS011;8243;49.048;8.396;2023-09-08T15:09:28;6.17;;;4.70;;
16270;SDS011;8243;49.048;8.396;2023-09-08T15:11:54;6.53;;;5.20;;